sensor_id;sensor_type;location;lat;lon;timestamp;P1;durP1;ratioP1;P2;durP2;ratioP2
44842;SDS011;31884;52.538;13.820;2023-11-21T00:02:17;19.73;;;10.63;;
44842;SDS011;31884;52.538;13.820;2023-11-21T00:04:43;20.40;;;10.32;;
44842;SDS011;31884;52.538;13.820;2023-11-21T00:07:08;22.48;;;10.10;;
44842;SDS011;31884;52.538;13.820;2023-11-21T00:09:34;18.90;;;9.75;;
44842;SDS011;31884;52.538;13.820;2023-11-21T00:12:01;16.48;;;9.13;;
44842;SDS011;31884;52.538;13.820;2023-11-21T00:14:27;19.85;;;8.85;;
44842;SDS011;31884;52.538;13.820;2023-11-21T00:16:52;21.08;;;9.23;;
44842;SDS011;31884;52.538;13.820;2023-11-21T00:19:18;22.85;;;10.50;;
44842;SDS011;31884;52.538;13.820;2023-11-21T00:21:44;21.35;;;10.70;;
44842;SDS011;31884;52.538;13.820;2023-11-21T00:24:10;22.60;;;11.00;;
44842;SDS011;31884;52.538;13.820;2023-11-21T00:26:38;26.55;;;12.13;;
44842;SDS011;31884;52.538;13.820;2023-11-21T00:29:04;25.15;;;11.27;;
44842;SDS011;31884;52.538;13.820;2023-11-21T00:31:33;17.90;;;9.52;;
44842;SDS011;31884;52.538;13.820;2023-11-21T00:34:01;19.83;;;10.43;;
44842;SDS011;31884;52.538;13.820;2023-11-21T00:36:30;22.48;;;11.25;;
44842;SDS011;31884;52.538;13.820;2023-11-21T00:38:56;17.48;;;9.80;;
44842;SDS011;31884;52.538;13.820;2023-11-21T00:41:22;24.25;;;11.43;;
44842;SDS011;31884;52.538;13.820;2023-11-21T00:43:48;28.00;;;13.35;;
44842;SDS011;31884;52.538;13.820;2023-11-21T00:46:13;32.10;;;14.18;;
44842;SDS011;31884;52.538;13.820;2023-11-21T00:48:39;27.08;;;12.85;;
44842;SDS011;31884;52.538;13.820;2023-11-21T00:51:04;32.20;;;14.25;;
44842;SDS011;31884;52.538;13.820;2023-11-21T00:53:31;31.15;;;15.63;;
44842;SDS011;31884;52.538;13.820;2023-11-21T00:55:57;27.85;;;14.10;;
44842;SDS011;31884;52.538;13.820;2023-11-21T00:58:25;26.80;;;13.23;;
44842;SDS011;31884;52.538;13.820;2023-11-21T01:00:51;29.10;;;15.90;;
44842;SDS011;31884;52.538;13.820;2023-11-21T01:03:16;37.63;;;19.65;;
44842;SDS011;31884;52.538;13.820;2023-11-21T01:05:42;36.45;;;18.38;;
44842;SDS011;31884;52.538;13.820;2023-11-21T01:08:07;33.92;;;18.48;;
44842;SDS011;31884;52.538;13.820;2023-11-21T01:10:33;33.22;;;17.58;;
44842;SDS011;31884;52.538;13.820;2023-11-21T01:13:02;36.67;;;19.23;;
44842;SDS011;31884;52.538;13.820;2023-11-21T01:15:30;33.72;;;18.20;;
44842;SDS011;31884;52.538;13.820;2023-11-21T01:17:55;32.05;;;17.10;;
44842;SDS011;31884;52.538;13.820;2023-11-21T01:20:21;26.38;;;14.85;;
44842;SDS011;31884;52.538;13.820;2023-11-21T01:22:46;29.55;;;16.00;;
44842;SDS011;31884;52.538;13.820;2023-11-21T01:25:14;26.88;;;13.52;;
44842;SDS011;31884;52.538;13.820;2023-11-21T01:27:41;22.92;;;13.10;;
44842;SDS011;31884;52.538;13.820;2023-11-21T01:30:07;22.27;;;13.35;;
44842;SDS011;31884;52.538;13.820;2023-11-21T01:32:35;25.63;;;15.75;;
44842;SDS011;31884;52.538;13.820;2023-11-21T01:35:01;23.75;;;13.05;;
44842;SDS011;31884;52.538;13.820;2023-11-21T01:37:26;23.63;;;13.30;;
44842;SDS011;31884;52.538;13.820;2023-11-21T01:39:53;25.23;;;14.02;;
44842;SDS011;31884;52.538;13.820;2023-11-21T01:42:20;26.95;;;14.35;;
44842;SDS011;31884;52.538;13.820;2023-11-21T01:44:46;28.55;;;15.60;;
44842;SDS011;31884;52.538;13.820;2023-11-21T01:47:11;29.75;;;14.50;;
44842;SDS011;31884;52.538;13.820;2023-11-21T01:49:38;26.80;;;14.48;;
44842;SDS011;31884;52.538;13.820;2023-11-21T01:52:04;25.88;;;13.35;;
44842;SDS011;31884;52.538;13.820;2023-11-21T01:54:29;29.30;;;15.02;;
44842;SDS011;31884;52.538;13.820;2023-11-21T01:56:56;23.92;;;12.52;;
44842;SDS011;31884;52.538;13.820;2023-11-21T01:59:27;30.02;;;13.82;;
44842;SDS011;31884;52.538;13.820;2023-11-21T02:01:59;30.33;;;15.23;;
44842;SDS011;31884;52.538;13.820;2023-11-21T02:04:24;37.38;;;16.35;;
44842;SDS011;31884;52.538;13.820;2023-11-21T02:06:50;35.70;;;16.63;;
44842;SDS011;31884;52.538;13.820;2023-11-21T02:09:15;31.85;;;15.63;;
44842;SDS011;31884;52.538;13.820;2023-11-21T02:11:42;33.65;;;14.40;;
44842;SDS011;31884;52.538;13.820;2023-11-21T02:14:08;32.45;;;14.32;;
44842;SDS011;31884;52.538;13.820;2023-11-21T02:16:34;33.08;;;15.27;;
44842;SDS011;31884;52.538;13.820;2023-11-21T02:19:01;30.40;;;13.68;;
44842;SDS011;31884;52.538;13.820;2023-11-21T02:21:28;39.00;;;16.27;;
44842;SDS011;31884;52.538;13.820;2023-11-21T02:23:55;38.88;;;16.55;;
44842;SDS011;31884;52.538;13.820;2023-11-21T02:26:20;34.42;;;15.52;;
44842;SDS011;31884;52.538;13.820;2023-11-21T02:28:46;32.90;;;15.55;;
44842;SDS011;31884;52.538;13.820;2023-11-21T02:31:11;39.78;;;16.00;;
44842;SDS011;31884;52.538;13.820;2023-11-21T02:33:37;35.33;;;14.82;;
44842;SDS011;31884;52.538;13.820;2023-11-21T02:36:03;29.70;;;13.07;;
44842;SDS011;31884;52.538;13.820;2023-11-21T02:38:28;27.80;;;14.27;;
44842;SDS011;31884;52.538;13.820;2023-11-21T02:40:55;28.23;;;12.57;;
44842;SDS011;31884;52.538;13.820;2023-11-21T02:43:22;26.58;;;12.23;;
44842;SDS011;31884;52.538;13.820;2023-11-21T02:45:47;31.15;;;14.30;;
44842;SDS011;31884;52.538;13.820;2023-11-21T02:48:13;32.95;;;13.45;;
44842;SDS011;31884;52.538;13.820;2023-11-21T02:50:38;27.95;;;12.82;;
44842;SDS011;31884;52.538;13.820;2023-11-21T02:53:04;26.05;;;12.55;;
44842;SDS011;31884;52.538;13.820;2023-11-21T02:55:32;22.30;;;10.75;;
44842;SDS011;31884;52.538;13.820;2023-11-21T02:58:01;23.92;;;11.30;;
44842;SDS011;31884;52.538;13.820;2023-11-21T03:00:26;20.75;;;11.20;;
44842;SDS011;31884;52.538;13.820;2023-11-21T03:02:52;16.90;;;9.48;;
44842;SDS011;31884;52.538;13.820;2023-11-21T03:05:19;17.08;;;9.55;;
44842;SDS011;31884;52.538;13.820;2023-11-21T03:07:45;15.05;;;8.93;;
44842;SDS011;31884;52.538;13.820;2023-11-21T03:10:10;17.50;;;9.60;;
44842;SDS011;31884;52.538;13.820;2023-11-21T03:12:36;15.02;;;8.98;;
44842;SDS011;31884;52.538;13.820;2023-11-21T03:15:03;15.63;;;9.20;;
44842;SDS011;31884;52.538;13.820;2023-11-21T03:17:30;12.73;;;8.15;;
44842;SDS011;31884;52.538;13.820;2023-11-21T03:19:56;11.88;;;6.45;;
44842;SDS011;31884;52.538;13.820;2023-11-21T03:22:22;11.98;;;7.05;;
44842;SDS011;31884;52.538;13.820;2023-11-21T03:24:48;14.40;;;7.65;;
44842;SDS011;31884;52.538;13.820;2023-11-21T03:27:14;11.10;;;7.05;;
44842;SDS011;31884;52.538;13.820;2023-11-21T03:29:39;13.90;;;7.28;;
44842;SDS011;31884;52.538;13.820;2023-11-21T03:32:05;12.35;;;7.88;;
44842;SDS011;31884;52.538;13.820;2023-11-21T03:34:32;12.45;;;7.20;;
44842;SDS011;31884;52.538;13.820;2023-11-21T03:36:57;13.43;;;7.93;;
44842;SDS011;31884;52.538;13.820;2023-11-21T03:39:23;11.98;;;6.97;;
44842;SDS011;31884;52.538;13.820;2023-11-21T03:41:50;13.43;;;6.95;;
44842;SDS011;31884;52.538;13.820;2023-11-21T03:44:16;12.07;;;7.05;;
44842;SDS011;31884;52.538;13.820;2023-11-21T03:46:42;13.27;;;7.18;;
44842;SDS011;31884;52.538;13.820;2023-11-21T03:49:09;11.77;;;7.10;;
44842;SDS011;31884;52.538;13.820;2023-11-21T03:51:35;13.98;;;6.60;;
44842;SDS011;31884;52.538;13.820;2023-11-21T03:54:01;11.55;;;7.72;;
44842;SDS011;31884;52.538;13.820;2023-11-21T03:56:28;11.35;;;6.45;;
44842;SDS011;31884;52.538;13.820;2023-11-21T03:58:53;9.93;;;6.20;;
44842;SDS011;31884;52.538;13.820;2023-11-21T04:01:20;11.40;;;5.80;;
44842;SDS011;31884;52.538;13.820;2023-11-21T04:03:49;8.98;;;5.68;;
44842;SDS011;31884;52.538;13.820;2023-11-21T04:06:15;9.95;;;6.32;;
44842;SDS011;31884;52.538;13.820;2023-11-21T04:08:42;8.15;;;4.90;;
44842;SDS011;31884;52.538;13.820;2023-11-21T04:11:09;9.40;;;5.97;;
44842;SDS011;31884;52.538;13.820;2023-11-21T04:13:36;8.27;;;4.90;;
44842;SDS011;31884;52.538;13.820;2023-11-21T04:16:03;11.23;;;5.10;;
44842;SDS011;31884;52.538;13.820;2023-11-21T04:18:29;9.07;;;5.10;;
44842;SDS011;31884;52.538;13.820;2023-11-21T04:20:55;8.50;;;5.30;;
44842;SDS011;31884;52.538;13.820;2023-11-21T04:23:20;8.38;;;4.53;;
44842;SDS011;31884;52.538;13.820;2023-11-21T04:25:46;9.15;;;5.18;;
44842;SDS011;31884;52.538;13.820;2023-11-21T04:28:11;7.90;;;5.20;;
44842;SDS011;31884;52.538;13.820;2023-11-21T04:30:37;8.57;;;4.50;;
44842;SDS011;31884;52.538;13.820;2023-11-21T04:33:04;6.95;;;4.53;;
44842;SDS011;31884;52.538;13.820;2023-11-21T04:35:30;6.80;;;4.45;;
44842;SDS011;31884;52.538;13.820;2023-11-21T04:37:55;6.72;;;4.65;;
44842;SDS011;31884;52.538;13.820;2023-11-21T04:40:22;5.78;;;4.28;;
44842;SDS011;31884;52.538;13.820;2023-11-21T04:42:47;7.47;;;4.85;;
44842;SDS011;31884;52.538;13.820;2023-11-21T04:45:13;6.35;;;4.10;;
44842;SDS011;31884;52.538;13.820;2023-11-21T04:47:38;8.18;;;4.75;;
44842;SDS011;31884;52.538;13.820;2023-11-21T04:50:04;8.38;;;4.82;;
44842;SDS011;31884;52.538;13.820;2023-11-21T04:52:30;10.07;;;5.65;;
44842;SDS011;31884;52.538;13.820;2023-11-21T04:54:57;9.85;;;5.30;;
44842;SDS011;31884;52.538;13.820;2023-11-21T04:57:23;7.57;;;4.93;;
44842;SDS011;31884;52.538;13.820;2023-11-21T04:59:49;7.90;;;5.05;;
44842;SDS011;31884;52.538;13.820;2023-11-21T05:02:15;12.52;;;5.90;;
44842;SDS011;31884;52.538;13.820;2023-11-21T05:04:40;10.75;;;5.63;;
44842;SDS011;31884;52.538;13.820;2023-11-21T05:07:07;9.52;;;5.60;;
44842;SDS011;31884;52.538;13.820;2023-11-21T05:09:33;14.98;;;7.03;;
44842;SDS011;31884;52.538;13.820;2023-11-21T05:11:59;11.98;;;6.70;;
44842;SDS011;31884;52.538;13.820;2023-11-21T05:14:25;12.00;;;6.30;;
44842;SDS011;31884;52.538;13.820;2023-11-21T05:16:50;13.50;;;6.15;;
44842;SDS011;31884;52.538;13.820;2023-11-21T05:19:16;15.90;;;7.10;;
44842;SDS011;31884;52.538;13.820;2023-11-21T05:21:42;14.27;;;7.13;;
44842;SDS011;31884;52.538;13.820;2023-11-21T05:24:07;10.15;;;5.57;;
44842;SDS011;31884;52.538;13.820;2023-11-21T05:26:33;14.40;;;6.60;;
44842;SDS011;31884;52.538;13.820;2023-11-21T05:28:59;15.20;;;7.97;;
44842;SDS011;31884;52.538;13.820;2023-11-21T05:31:24;11.07;;;5.95;;
44842;SDS011;31884;52.538;13.820;2023-11-21T05:33:50;11.45;;;6.90;;
44842;SDS011;31884;52.538;13.820;2023-11-21T05:36:15;11.50;;;6.65;;
44842;SDS011;31884;52.538;13.820;2023-11-21T05:38:41;8.48;;;5.78;;
44842;SDS011;31884;52.538;13.820;2023-11-21T05:41:06;10.10;;;6.30;;
44842;SDS011;31884;52.538;13.820;2023-11-21T05:43:33;11.27;;;6.53;;
44842;SDS011;31884;52.538;13.820;2023-11-21T05:46:00;8.45;;;5.05;;
44842;SDS011;31884;52.538;13.820;2023-11-21T05:48:26;11.57;;;6.25;;
44842;SDS011;31884;52.538;13.820;2023-11-21T05:50:51;9.75;;;5.03;;
44842;SDS011;31884;52.538;13.820;2023-11-21T05:53:17;10.82;;;5.68;;
44842;SDS011;31884;52.538;13.820;2023-11-21T05:55:43;8.98;;;4.53;;
44842;SDS011;31884;52.538;13.820;2023-11-21T05:58:08;7.45;;;4.32;;
44842;SDS011;31884;52.538;13.820;2023-11-21T06:00:34;9.68;;;4.90;;
44842;SDS011;31884;52.538;13.820;2023-11-21T06:02:59;6.47;;;4.15;;
44842;SDS011;31884;52.538;13.820;2023-11-21T06:05:25;8.38;;;5.03;;
44842;SDS011;31884;52.538;13.820;2023-11-21T06:07:51;10.15;;;5.18;;
44842;SDS011;31884;52.538;13.820;2023-11-21T06:10:19;8.50;;;4.97;;
44842;SDS011;31884;52.538;13.820;2023-11-21T06:12:46;8.15;;;5.10;;
44842;SDS011;31884;52.538;13.820;2023-11-21T06:15:11;10.52;;;5.60;;
44842;SDS011;31884;52.538;13.820;2023-11-21T06:17:41;9.15;;;5.00;;
44842;SDS011;31884;52.538;13.820;2023-11-21T06:20:08;14.60;;;6.40;;
44842;SDS011;31884;52.538;13.820;2023-11-21T06:22:39;10.30;;;6.15;;
44842;SDS011;31884;52.538;13.820;2023-11-21T06:25:09;21.30;;;8.27;;
44842;SDS011;31884;52.538;13.820;2023-11-21T06:27:37;19.98;;;8.02;;
44842;SDS011;31884;52.538;13.820;2023-11-21T06:30:04;19.45;;;7.35;;
44842;SDS011;31884;52.538;13.820;2023-11-21T06:32:31;25.77;;;11.35;;
44842;SDS011;31884;52.538;13.820;2023-11-21T06:34:57;18.50;;;7.68;;
44842;SDS011;31884;52.538;13.820;2023-11-21T06:37:26;18.30;;;8.48;;
44842;SDS011;31884;52.538;13.820;2023-11-21T06:39:52;20.38;;;8.65;;
44842;SDS011;31884;52.538;13.820;2023-11-21T06:42:18;25.17;;;8.60;;
44842;SDS011;31884;52.538;13.820;2023-11-21T06:44:48;30.35;;;11.32;;
44842;SDS011;31884;52.538;13.820;2023-11-21T06:47:13;37.65;;;14.43;;
44842;SDS011;31884;52.538;13.820;2023-11-21T06:49:40;38.58;;;14.35;;
44842;SDS011;31884;52.538;13.820;2023-11-21T06:52:07;38.70;;;13.07;;
44842;SDS011;31884;52.538;13.820;2023-11-21T06:54:33;39.92;;;14.27;;
44842;SDS011;31884;52.538;13.820;2023-11-21T06:56:59;38.28;;;14.27;;
44842;SDS011;31884;52.538;13.820;2023-11-21T06:59:25;41.80;;;15.98;;
44842;SDS011;31884;52.538;13.820;2023-11-21T07:01:51;48.97;;;16.85;;
44842;SDS011;31884;52.538;13.820;2023-11-21T07:04:16;37.28;;;14.75;;
44842;SDS011;31884;52.538;13.820;2023-11-21T07:06:43;36.38;;;12.57;;
44842;SDS011;31884;52.538;13.820;2023-11-21T07:09:09;34.30;;;12.30;;
44842;SDS011;31884;52.538;13.820;2023-11-21T07:11:36;33.53;;;12.02;;
44842;SDS011;31884;52.538;13.820;2023-11-21T07:14:03;31.92;;;12.98;;
44842;SDS011;31884;52.538;13.820;2023-11-21T07:16:32;31.90;;;11.15;;
44842;SDS011;31884;52.538;13.820;2023-11-21T07:19:04;25.33;;;10.25;;
44842;SDS011;31884;52.538;13.820;2023-11-21T07:21:33;26.35;;;10.65;;
44842;SDS011;31884;52.538;13.820;2023-11-21T07:23:59;26.17;;;10.60;;
44842;SDS011;31884;52.538;13.820;2023-11-21T07:26:28;28.35;;;11.00;;
44842;SDS011;31884;52.538;13.820;2023-11-21T07:28:54;30.08;;;11.70;;
44842;SDS011;31884;52.538;13.820;2023-11-21T07:31:21;29.90;;;11.13;;
44842;SDS011;31884;52.538;13.820;2023-11-21T07:33:47;26.27;;;9.57;;
44842;SDS011;31884;52.538;13.820;2023-11-21T07:36:13;21.00;;;8.43;;
44842;SDS011;31884;52.538;13.820;2023-11-21T07:38:39;17.75;;;8.40;;
44842;SDS011;31884;52.538;13.820;2023-11-21T07:41:05;19.05;;;8.95;;
44842;SDS011;31884;52.538;13.820;2023-11-21T07:43:32;20.38;;;7.97;;
44842;SDS011;31884;52.538;13.820;2023-11-21T07:46:03;17.38;;;6.82;;
44842;SDS011;31884;52.538;13.820;2023-11-21T07:48:29;16.70;;;7.05;;
44842;SDS011;31884;52.538;13.820;2023-11-21T07:50:56;20.00;;;7.10;;
44842;SDS011;31884;52.538;13.820;2023-11-21T07:53:23;14.75;;;6.43;;
44842;SDS011;31884;52.538;13.820;2023-11-21T07:55:50;14.95;;;6.30;;
44842;SDS011;31884;52.538;13.820;2023-11-21T07:58:16;17.30;;;6.45;;
44842;SDS011;31884;52.538;13.820;2023-11-21T08:00:41;17.15;;;6.60;;
44842;SDS011;31884;52.538;13.820;2023-11-21T08:03:07;16.55;;;6.88;;
44842;SDS011;31884;52.538;13.820;2023-11-21T08:05:32;17.77;;;7.30;;
44842;SDS011;31884;52.538;13.820;2023-11-21T08:07:58;12.30;;;5.70;;
44842;SDS011;31884;52.538;13.820;2023-11-21T08:10:23;11.48;;;6.10;;
44842;SDS011;31884;52.538;13.820;2023-11-21T08:12:50;12.45;;;5.47;;
44842;SDS011;31884;52.538;13.820;2023-11-21T08:15:15;13.82;;;5.68;;
44842;SDS011;31884;52.538;13.820;2023-11-21T08:17:41;10.02;;;4.97;;
44842;SDS011;31884;52.538;13.820;2023-11-21T08:20:06;8.80;;;4.40;;
44842;SDS011;31884;52.538;13.820;2023-11-21T08:22:35;6.22;;;3.55;;
44842;SDS011;31884;52.538;13.820;2023-11-21T08:25:01;8.40;;;4.30;;
44842;SDS011;31884;52.538;13.820;2023-11-21T08:27:29;5.00;;;3.13;;
44842;SDS011;31884;52.538;13.820;2023-11-21T08:29:54;6.70;;;3.95;;
44842;SDS011;31884;52.538;13.820;2023-11-21T08:32:21;6.78;;;3.40;;
44842;SDS011;31884;52.538;13.820;2023-11-21T08:34:46;5.95;;;3.10;;
44842;SDS011;31884;52.538;13.820;2023-11-21T08:37:15;4.45;;;3.40;;
44842;SDS011;31884;52.538;13.820;2023-11-21T08:39:41;5.85;;;2.75;;
44842;SDS011;31884;52.538;13.820;2023-11-21T08:42:08;4.93;;;2.95;;
44842;SDS011;31884;52.538;13.820;2023-11-21T08:44:33;3.97;;;3.05;;
44842;SDS011;31884;52.538;13.820;2023-11-21T08:46:59;5.55;;;2.45;;
44842;SDS011;31884;52.538;13.820;2023-11-21T08:49:24;4.07;;;2.78;;
44842;SDS011;31884;52.538;13.820;2023-11-21T08:51:52;5.15;;;2.80;;
44842;SDS011;31884;52.538;13.820;2023-11-21T08:54:20;3.72;;;2.70;;
44842;SDS011;31884;52.538;13.820;2023-11-21T08:56:46;3.38;;;2.30;;
44842;SDS011;31884;52.538;13.820;2023-11-21T08:59:11;3.55;;;2.08;;
44842;SDS011;31884;52.538;13.820;2023-11-21T09:01:39;3.83;;;2.33;;
44842;SDS011;31884;52.538;13.820;2023-11-21T09:04:05;3.17;;;1.98;;
44842;SDS011;31884;52.538;13.820;2023-11-21T09:06:31;3.15;;;2.15;;
44842;SDS011;31884;52.538;13.820;2023-11-21T09:08:56;3.03;;;1.85;;
44842;SDS011;31884;52.538;13.820;2023-11-21T09:11:22;2.50;;;2.22;;
44842;SDS011;31884;52.538;13.820;2023-11-21T09:13:50;2.58;;;1.67;;
44842;SDS011;31884;52.538;13.820;2023-11-21T09:16:16;2.17;;;1.77;;
44842;SDS011;31884;52.538;13.820;2023-11-21T09:18:42;1.90;;;1.42;;
44842;SDS011;31884;52.538;13.820;2023-11-21T09:21:07;1.95;;;1.45;;
44842;SDS011;31884;52.538;13.820;2023-11-21T09:23:34;3.75;;;1.45;;
44842;SDS011;31884;52.538;13.820;2023-11-21T09:26:00;2.58;;;1.50;;
44842;SDS011;31884;52.538;13.820;2023-11-21T09:28:26;2.03;;;1.10;;
44842;SDS011;31884;52.538;13.820;2023-11-21T09:30:52;2.50;;;1.67;;
44842;SDS011;31884;52.538;13.820;2023-11-21T09:33:18;2.72;;;1.60;;
44842;SDS011;31884;52.538;13.820;2023-11-21T09:35:44;3.13;;;1.50;;
44842;SDS011;31884;52.538;13.820;2023-11-21T09:38:09;1.70;;;1.60;;
44842;SDS011;31884;52.538;13.820;2023-11-21T09:40:36;3.10;;;1.70;;
44842;SDS011;31884;52.538;13.820;2023-11-21T09:43:03;2.25;;;1.50;;
44842;SDS011;31884;52.538;13.820;2023-11-21T09:45:43;3.55;;;1.58;;
44842;SDS011;31884;52.538;13.820;2023-11-21T09:48:11;3.53;;;1.80;;
44842;SDS011;31884;52.538;13.820;2023-11-21T09:50:39;2.13;;;1.50;;
44842;SDS011;31884;52.538;13.820;2023-11-21T09:53:12;1.42;;;1.27;;
44842;SDS011;31884;52.538;13.820;2023-11-21T09:55:43;2.53;;;1.65;;
44842;SDS011;31884;52.538;13.820;2023-11-21T09:58:10;1.75;;;1.63;;
44842;SDS011;31884;52.538;13.820;2023-11-21T10:00:43;2.00;;;1.55;;
44842;SDS011;31884;52.538;13.820;2023-11-21T10:03:10;2.72;;;1.63;;
44842;SDS011;31884;52.538;13.820;2023-11-21T10:05:37;3.05;;;1.98;;
44842;SDS011;31884;52.538;13.820;2023-11-21T10:08:04;3.38;;;1.75;;
44842;SDS011;31884;52.538;13.820;2023-11-21T10:10:34;2.10;;;1.80;;
44842;SDS011;31884;52.538;13.820;2023-11-21T10:13:02;2.78;;;1.50;;
44842;SDS011;31884;52.538;13.820;2023-11-21T10:15:31;3.53;;;2.17;;
44842;SDS011;31884;52.538;13.820;2023-11-21T10:17:59;3.03;;;1.83;;
44842;SDS011;31884;52.538;13.820;2023-11-21T10:20:27;2.58;;;1.88;;
44842;SDS011;31884;52.538;13.820;2023-11-21T10:22:54;2.80;;;2.05;;
44842;SDS011;31884;52.538;13.820;2023-11-21T10:25:21;2.05;;;1.40;;
44842;SDS011;31884;52.538;13.820;2023-11-21T10:27:48;3.10;;;1.52;;
44842;SDS011;31884;52.538;13.820;2023-11-21T10:30:17;3.28;;;1.80;;
44842;SDS011;31884;52.538;13.820;2023-11-21T10:32:43;2.80;;;1.67;;
44842;SDS011;31884;52.538;13.820;2023-11-21T10:35:09;1.27;;;1.17;;
44842;SDS011;31884;52.538;13.820;2023-11-21T10:37:36;2.95;;;1.60;;
44842;SDS011;31884;52.538;13.820;2023-11-21T10:40:08;2.13;;;1.40;;
44842;SDS011;31884;52.538;13.820;2023-11-21T10:42:40;3.67;;;1.77;;
44842;SDS011;31884;52.538;13.820;2023-11-21T10:45:07;2.60;;;1.70;;
44842;SDS011;31884;52.538;13.820;2023-11-21T10:47:39;1.60;;;1.30;;
44842;SDS011;31884;52.538;13.820;2023-11-21T10:50:06;2.28;;;1.50;;
44842;SDS011;31884;52.538;13.820;2023-11-21T10:52:36;2.22;;;1.58;;
44842;SDS011;31884;52.538;13.820;2023-11-21T10:55:10;2.00;;;1.88;;
44842;SDS011;31884;52.538;13.820;2023-11-21T10:57:41;2.45;;;1.90;;
44842;SDS011;31884;52.538;13.820;2023-11-21T11:00:08;2.78;;;1.58;;
44842;SDS011;31884;52.538;13.820;2023-11-21T11:02:38;2.17;;;1.50;;
44842;SDS011;31884;52.538;13.820;2023-11-21T11:05:04;3.22;;;1.50;;
44842;SDS011;31884;52.538;13.820;2023-11-21T11:07:31;4.38;;;1.77;;
44842;SDS011;31884;52.538;13.820;2023-11-21T11:09:59;2.20;;;1.55;;
44842;SDS011;31884;52.538;13.820;2023-11-21T11:12:25;1.83;;;1.33;;
44842;SDS011;31884;52.538;13.820;2023-11-21T11:14:51;2.10;;;1.50;;
44842;SDS011;31884;52.538;13.820;2023-11-21T11:17:17;2.92;;;1.55;;
44842;SDS011;31884;52.538;13.820;2023-11-21T11:19:45;5.80;;;1.83;;
44842;SDS011;31884;52.538;13.820;2023-11-21T11:22:37;2.50;;;1.80;;
44842;SDS011;31884;52.538;13.820;2023-11-21T11:25:11;1.52;;;1.10;;
44842;SDS011;31884;52.538;13.820;2023-11-21T11:28:04;1.92;;;1.17;;
44842;SDS011;31884;52.538;13.820;2023-11-21T11:38:51;4.63;;;1.27;;
44842;SDS011;31884;52.538;13.820;2023-11-21T11:41:28;2.40;;;1.20;;
44842;SDS011;31884;52.538;13.820;2023-11-21T11:43:57;2.40;;;1.73;;
44842;SDS011;31884;52.538;13.820;2023-11-21T11:46:40;3.88;;;1.40;;
44842;SDS011;31884;52.538;13.820;2023-11-21T11:49:07;1.98;;;1.23;;
44842;SDS011;31884;52.538;13.820;2023-11-21T11:51:33;3.20;;;1.63;;
44842;SDS011;31884;52.538;13.820;2023-11-21T11:54:00;1.90;;;1.30;;
44842;SDS011;31884;52.538;13.820;2023-11-21T11:58:54;2.47;;;1.63;;
44842;SDS011;31884;52.538;13.820;2023-11-21T12:01:22;2.25;;;1.35;;
44842;SDS011;31884;52.538;13.820;2023-11-21T12:04:22;2.63;;;1.58;;
44842;SDS011;31884;52.538;13.820;2023-11-21T12:06:51;3.33;;;1.80;;
44842;SDS011;31884;52.538;13.820;2023-11-21T12:09:18;1.95;;;1.67;;
44842;SDS011;31884;52.538;13.820;2023-11-21T12:11:48;1.73;;;1.50;;
44842;SDS011;31884;52.538;13.820;2023-11-21T12:14:14;2.45;;;1.63;;
44842;SDS011;31884;52.538;13.820;2023-11-21T12:16:40;1.75;;;1.42;;
44842;SDS011;31884;52.538;13.820;2023-11-21T12:19:07;3.15;;;1.67;;
44842;SDS011;31884;52.538;13.820;2023-11-21T12:21:33;2.75;;;1.63;;
44842;SDS011;31884;52.538;13.820;2023-11-21T12:23:59;4.45;;;1.95;;
44842;SDS011;31884;52.538;13.820;2023-11-21T12:26:25;2.58;;;1.50;;
44842;SDS011;31884;52.538;13.820;2023-11-21T12:28:52;4.00;;;1.92;;
44842;SDS011;31884;52.538;13.820;2023-11-21T12:31:20;3.33;;;2.03;;
44842;SDS011;31884;52.538;13.820;2023-11-21T12:33:46;3.40;;;2.10;;
44842;SDS011;31884;52.538;13.820;2023-11-21T12:36:12;4.45;;;2.25;;
44842;SDS011;31884;52.538;13.820;2023-11-21T12:38:38;2.88;;;1.95;;
44842;SDS011;31884;52.538;13.820;2023-11-21T12:41:03;7.78;;;2.00;;
44842;SDS011;31884;52.538;13.820;2023-11-21T12:43:31;3.72;;;2.45;;
44842;SDS011;31884;52.538;13.820;2023-11-21T12:46:07;4.57;;;2.63;;
44842;SDS011;31884;52.538;13.820;2023-11-21T12:48:42;5.35;;;2.67;;
44842;SDS011;31884;52.538;13.820;2023-11-21T12:51:08;4.57;;;2.50;;
44842;SDS011;31884;52.538;13.820;2023-11-21T12:53:35;4.28;;;2.72;;
44842;SDS011;31884;52.538;13.820;2023-11-21T12:56:07;4.78;;;3.88;;
44842;SDS011;31884;52.538;13.820;2023-11-21T12:58:35;4.60;;;3.17;;
44842;SDS011;31884;52.538;13.820;2023-11-21T13:01:04;5.30;;;3.50;;
44842;SDS011;31884;52.538;13.820;2023-11-21T13:03:30;6.20;;;3.60;;
44842;SDS011;31884;52.538;13.820;2023-11-21T13:05:57;4.88;;;3.20;;
44842;SDS011;31884;52.538;13.820;2023-11-21T13:08:24;8.23;;;4.20;;
44842;SDS011;31884;52.538;13.820;2023-11-21T13:10:51;6.97;;;4.57;;
44842;SDS011;31884;52.538;13.820;2023-11-21T13:13:19;6.10;;;4.28;;
44842;SDS011;31884;52.538;13.820;2023-11-21T13:15:48;5.18;;;3.58;;
44842;SDS011;31884;52.538;13.820;2023-11-21T13:18:21;8.32;;;4.07;;
44842;SDS011;31884;52.538;13.820;2023-11-21T13:20:48;7.30;;;3.95;;
44842;SDS011;31884;52.538;13.820;2023-11-21T13:23:14;6.47;;;3.78;;
44842;SDS011;31884;52.538;13.820;2023-11-21T13:25:43;6.50;;;4.25;;
44842;SDS011;31884;52.538;13.820;2023-11-21T13:28:10;4.88;;;3.20;;
44842;SDS011;31884;52.538;13.820;2023-11-21T13:30:37;4.80;;;3.38;;
44842;SDS011;31884;52.538;13.820;2023-11-21T13:33:04;4.68;;;3.45;;
44842;SDS011;31884;52.538;13.820;2023-11-21T13:35:31;5.22;;;3.47;;
44842;SDS011;31884;52.538;13.820;2023-11-21T13:38:33;7.45;;;3.63;;
44842;SDS011;31884;52.538;13.820;2023-11-21T13:45:51;3.92;;;3.40;;
44842;SDS011;31884;52.538;13.820;2023-11-21T13:48:28;6.55;;;4.65;;
44842;SDS011;31884;52.538;13.820;2023-11-21T13:51:02;6.35;;;4.55;;
44842;SDS011;31884;52.538;13.820;2023-11-21T13:53:38;8.18;;;4.95;;
44842;SDS011;31884;52.538;13.820;2023-11-21T13:56:06;6.70;;;4.78;;
44842;SDS011;31884;52.538;13.820;2023-11-21T13:58:32;9.25;;;5.60;;
44842;SDS011;31884;52.538;13.820;2023-11-21T14:01:09;8.95;;;5.57;;
44842;SDS011;31884;52.538;13.820;2023-11-21T14:03:53;7.03;;;5.13;;
44842;SDS011;31884;52.538;13.820;2023-11-21T14:06:25;8.02;;;5.70;;
44842;SDS011;31884;52.538;13.820;2023-11-21T14:08:57;8.15;;;5.40;;
44842;SDS011;31884;52.538;13.820;2023-11-21T14:11:24;10.93;;;6.30;;
44842;SDS011;31884;52.538;13.820;2023-11-21T14:13:49;8.93;;;5.80;;
44842;SDS011;31884;52.538;13.820;2023-11-21T14:16:15;8.43;;;5.47;;
44842;SDS011;31884;52.538;13.820;2023-11-21T14:18:42;9.27;;;6.45;;
44842;SDS011;31884;52.538;13.820;2023-11-21T14:23:43;9.75;;;6.28;;
44842;SDS011;31884;52.538;13.820;2023-11-21T14:26:10;8.80;;;6.50;;
44842;SDS011;31884;52.538;13.820;2023-11-21T14:28:39;11.60;;;7.88;;
44842;SDS011;31884;52.538;13.820;2023-11-21T14:31:04;11.85;;;7.82;;
44842;SDS011;31884;52.538;13.820;2023-11-21T14:33:30;18.02;;;10.77;;
44842;SDS011;31884;52.538;13.820;2023-11-21T14:35:55;17.13;;;10.68;;
44842;SDS011;31884;52.538;13.820;2023-11-21T14:38:22;16.02;;;9.57;;
44842;SDS011;31884;52.538;13.820;2023-11-21T14:40:48;21.10;;;11.90;;
44842;SDS011;31884;52.538;13.820;2023-11-21T14:43:14;19.42;;;11.23;;